sensor_id;sensor_type;location;lat;lon;timestamp;P1;durP1;ratioP1;P2;durP2;ratioP2
12784;SDS011;6456;42.680;23.260;2022-12-29T00:00:20;39.53;;;28.50;;
12784;SDS011;6456;42.680;23.260;2022-12-29T00:02:47;38.60;;;27.30;;
12784;SDS011;6456;42.680;23.260;2022-12-29T00:05:14;41.67;;;27.90;;
12784;SDS011;6456;42.680;23.260;2022-12-29T00:07:42;39.27;;;29.00;;
12784;SDS011;6456;42.680;23.260;2022-12-29T00:10:09;37.63;;;27.73;;
12784;SDS011;6456;42.680;23.260;2022-12-29T00:12:36;39.57;;;28.07;;
12784;SDS011;6456;42.680;23.260;2022-12-29T00:15:21;42.00;;;28.60;;
12784;SDS011;6456;42.680;23.260;2022-12-29T00:18:06;39.30;;;26.73;;
12784;SDS011;6456;42.680;23.260;2022-12-29T00:20:33;42.30;;;29.57;;
12784;SDS011;6456;42.680;23.260;2022-12-29T00:23:20;39.33;;;28.43;;
12784;SDS011;6456;42.680;23.260;2022-12-29T00:26:08;38.57;;;26.57;;
12784;SDS011;6456;42.680;23.260;2022-12-29T00:28:56;37.23;;;26.53;;
12784;SDS011;6456;42.680;23.260;2022-12-29T00:31:40;38.17;;;27.13;;
12784;SDS011;6456;42.680;23.260;2022-12-29T00:34:25;39.67;;;28.03;;
12784;SDS011;6456;42.680;23.260;2022-12-29T00:37:09;33.50;;;24.80;;
12784;SDS011;6456;42.680;23.260;2022-12-29T00:39:37;36.00;;;25.93;;
12784;SDS011;6456;42.680;23.260;2022-12-29T00:42:21;38.10;;;26.63;;
12784;SDS011;6456;42.680;23.260;2022-12-29T00:45:06;35.77;;;26.63;;
12784;SDS011;6456;42.680;23.260;2022-12-29T00:47:33;36.30;;;26.40;;
12784;SDS011;6456;42.680;23.260;2022-12-29T00:49:59;33.00;;;24.20;;
12784;SDS011;6456;42.680;23.260;2022-12-29T00:52:25;30.80;;;22.57;;
12784;SDS011;6456;42.680;23.260;2022-12-29T00:54:54;27.73;;;21.17;;
12784;SDS011;6456;42.680;23.260;2022-12-29T00:57:21;28.93;;;21.43;;
12784;SDS011;6456;42.680;23.260;2022-12-29T00:59:48;31.97;;;22.90;;
12784;SDS011;6456;42.680;23.260;2022-12-29T01:02:15;34.07;;;24.20;;
12784;SDS011;6456;42.680;23.260;2022-12-29T01:04:41;33.17;;;22.37;;
12784;SDS011;6456;42.680;23.260;2022-12-29T01:07:08;33.40;;;24.20;;
12784;SDS011;6456;42.680;23.260;2022-12-29T01:09:35;34.63;;;24.03;;
12784;SDS011;6456;42.680;23.260;2022-12-29T01:12:20;27.20;;;21.50;;
12784;SDS011;6456;42.680;23.260;2022-12-29T01:15:06;29.33;;;22.50;;
12784;SDS011;6456;42.680;23.260;2022-12-29T01:17:34;31.00;;;22.33;;
12784;SDS011;6456;42.680;23.260;2022-12-29T01:20:01;29.90;;;21.90;;
12784;SDS011;6456;42.680;23.260;2022-12-29T01:22:29;29.37;;;22.13;;
12784;SDS011;6456;42.680;23.260;2022-12-29T01:24:56;31.37;;;23.03;;
12784;SDS011;6456;42.680;23.260;2022-12-29T01:27:24;29.83;;;21.87;;
12784;SDS011;6456;42.680;23.260;2022-12-29T01:29:51;33.57;;;23.13;;
12784;SDS011;6456;42.680;23.260;2022-12-29T01:32:18;30.27;;;22.30;;
12784;SDS011;6456;42.680;23.260;2022-12-29T01:34:45;31.63;;;22.03;;
12784;SDS011;6456;42.680;23.260;2022-12-29T01:37:12;29.73;;;22.30;;
12784;SDS011;6456;42.680;23.260;2022-12-29T01:39:39;31.07;;;21.50;;
12784;SDS011;6456;42.680;23.260;2022-12-29T01:42:08;28.07;;;21.07;;
12784;SDS011;6456;42.680;23.260;2022-12-29T01:44:53;28.73;;;21.37;;
12784;SDS011;6456;42.680;23.260;2022-12-29T01:47:26;26.67;;;21.13;;
12784;SDS011;6456;42.680;23.260;2022-12-29T01:49:57;30.10;;;22.47;;
12784;SDS011;6456;42.680;23.260;2022-12-29T01:52:28;28.10;;;21.87;;
12784;SDS011;6456;42.680;23.260;2022-12-29T01:54:58;30.33;;;22.70;;
12784;SDS011;6456;42.680;23.260;2022-12-29T01:57:27;27.23;;;21.60;;
12784;SDS011;6456;42.680;23.260;2022-12-29T02:00:00;29.07;;;21.90;;
12784;SDS011;6456;42.680;23.260;2022-12-29T02:02:30;28.40;;;21.67;;
12784;SDS011;6456;42.680;23.260;2022-12-29T02:04:58;28.03;;;21.37;;
12784;SDS011;6456;42.680;23.260;2022-12-29T02:07:29;29.67;;;22.07;;
12784;SDS011;6456;42.680;23.260;2022-12-29T02:09:56;30.80;;;22.77;;
12784;SDS011;6456;42.680;23.260;2022-12-29T02:12:25;30.57;;;22.63;;
12784;SDS011;6456;42.680;23.260;2022-12-29T02:14:53;30.50;;;22.73;;
12784;SDS011;6456;42.680;23.260;2022-12-29T02:17:30;29.23;;;22.10;;
12784;SDS011;6456;42.680;23.260;2022-12-29T02:23:11;30.27;;;20.93;;
12784;SDS011;6456;42.680;23.260;2022-12-29T02:25:59;27.03;;;20.80;;
12784;SDS011;6456;42.680;23.260;2022-12-29T02:29:17;27.63;;;20.57;;
12784;SDS011;6456;42.680;23.260;2022-12-29T02:31:59;32.17;;;24.50;;
12784;SDS011;6456;42.680;23.260;2022-12-29T02:34:31;28.30;;;21.37;;
12784;SDS011;6456;42.680;23.260;2022-12-29T02:37:10;31.23;;;22.43;;
12784;SDS011;6456;42.680;23.260;2022-12-29T02:39:48;28.47;;;21.23;;
12784;SDS011;6456;42.680;23.260;2022-12-29T02:42:23;29.23;;;21.03;;
12784;SDS011;6456;42.680;23.260;2022-12-29T02:44:58;28.73;;;20.93;;
12784;SDS011;6456;42.680;23.260;2022-12-29T02:47:35;28.53;;;21.53;;
12784;SDS011;6456;42.680;23.260;2022-12-29T02:50:05;29.37;;;22.33;;
12784;SDS011;6456;42.680;23.260;2022-12-29T02:52:41;30.33;;;21.80;;
12784;SDS011;6456;42.680;23.260;2022-12-29T02:55:12;30.63;;;22.10;;
12784;SDS011;6456;42.680;23.260;2022-12-29T02:57:38;28.13;;;21.93;;
12784;SDS011;6456;42.680;23.260;2022-12-29T03:00:06;28.50;;;22.20;;
12784;SDS011;6456;42.680;23.260;2022-12-29T03:05:55;29.07;;;22.10;;
12784;SDS011;6456;42.680;23.260;2022-12-29T03:08:34;27.07;;;21.60;;
12784;SDS011;6456;42.680;23.260;2022-12-29T03:11:07;27.43;;;21.50;;
12784;SDS011;6456;42.680;23.260;2022-12-29T03:13:59;26.47;;;20.90;;
12784;SDS011;6456;42.680;23.260;2022-12-29T03:16:50;29.70;;;23.20;;
12784;SDS011;6456;42.680;23.260;2022-12-29T03:19:21;27.47;;;20.93;;
12784;SDS011;6456;42.680;23.260;2022-12-29T03:21:54;25.50;;;20.77;;
12784;SDS011;6456;42.680;23.260;2022-12-29T03:24:40;26.50;;;21.50;;
12784;SDS011;6456;42.680;23.260;2022-12-29T03:27:13;29.23;;;20.93;;
12784;SDS011;6456;42.680;23.260;2022-12-29T03:29:45;32.63;;;22.07;;
12784;SDS011;6456;42.680;23.260;2022-12-29T03:32:18;28.33;;;20.93;;
12784;SDS011;6456;42.680;23.260;2022-12-29T03:34:46;26.90;;;21.20;;
12784;SDS011;6456;42.680;23.260;2022-12-29T03:37:17;26.90;;;20.60;;
12784;SDS011;6456;42.680;23.260;2022-12-29T03:39:48;26.77;;;21.03;;
12784;SDS011;6456;42.680;23.260;2022-12-29T03:42:16;27.67;;;21.17;;
12784;SDS011;6456;42.680;23.260;2022-12-29T03:44:46;28.93;;;21.37;;
12784;SDS011;6456;42.680;23.260;2022-12-29T03:47:14;33.77;;;22.63;;
12784;SDS011;6456;42.680;23.260;2022-12-29T03:49:41;28.53;;;21.60;;
12784;SDS011;6456;42.680;23.260;2022-12-29T03:52:08;29.40;;;22.67;;
12784;SDS011;6456;42.680;23.260;2022-12-29T03:54:36;28.93;;;20.87;;
12784;SDS011;6456;42.680;23.260;2022-12-29T03:57:03;31.13;;;22.67;;
12784;SDS011;6456;42.680;23.260;2022-12-29T03:59:30;28.57;;;22.70;;
12784;SDS011;6456;42.680;23.260;2022-12-29T04:01:56;36.97;;;27.00;;
12784;SDS011;6456;42.680;23.260;2022-12-29T04:04:23;33.17;;;24.90;;
12784;SDS011;6456;42.680;23.260;2022-12-29T04:06:50;27.90;;;20.23;;
12784;SDS011;6456;42.680;23.260;2022-12-29T04:09:17;29.43;;;22.40;;
12784;SDS011;6456;42.680;23.260;2022-12-29T04:11:45;28.47;;;21.87;;
12784;SDS011;6456;42.680;23.260;2022-12-29T04:14:12;27.67;;;21.67;;
12784;SDS011;6456;42.680;23.260;2022-12-29T04:16:39;29.43;;;22.00;;
12784;SDS011;6456;42.680;23.260;2022-12-29T04:19:07;27.07;;;21.07;;
12784;SDS011;6456;42.680;23.260;2022-12-29T04:21:34;29.07;;;21.70;;
12784;SDS011;6456;42.680;23.260;2022-12-29T04:24:01;29.20;;;22.50;;
12784;SDS011;6456;42.680;23.260;2022-12-29T04:26:31;29.20;;;22.13;;
12784;SDS011;6456;42.680;23.260;2022-12-29T04:28:59;27.80;;;21.77;;
12784;SDS011;6456;42.680;23.260;2022-12-29T04:31:26;34.43;;;23.27;;
12784;SDS011;6456;42.680;23.260;2022-12-29T04:33:53;28.80;;;22.60;;
12784;SDS011;6456;42.680;23.260;2022-12-29T04:36:22;29.30;;;22.87;;
12784;SDS011;6456;42.680;23.260;2022-12-29T04:38:49;30.20;;;23.40;;
12784;SDS011;6456;42.680;23.260;2022-12-29T04:41:16;30.13;;;23.87;;
12784;SDS011;6456;42.680;23.260;2022-12-29T04:43:43;31.47;;;23.87;;
12784;SDS011;6456;42.680;23.260;2022-12-29T04:46:11;31.10;;;24.33;;
12784;SDS011;6456;42.680;23.260;2022-12-29T04:48:38;31.13;;;22.60;;
12784;SDS011;6456;42.680;23.260;2022-12-29T04:51:05;30.17;;;23.70;;
12784;SDS011;6456;42.680;23.260;2022-12-29T04:53:32;34.27;;;24.53;;
12784;SDS011;6456;42.680;23.260;2022-12-29T04:55:59;30.37;;;22.83;;
12784;SDS011;6456;42.680;23.260;2022-12-29T04:58:26;31.47;;;24.07;;
12784;SDS011;6456;42.680;23.260;2022-12-29T05:00:53;30.27;;;23.70;;
12784;SDS011;6456;42.680;23.260;2022-12-29T05:03:21;34.07;;;23.60;;
12784;SDS011;6456;42.680;23.260;2022-12-29T05:05:48;33.87;;;24.43;;
12784;SDS011;6456;42.680;23.260;2022-12-29T05:08:15;33.40;;;25.33;;
12784;SDS011;6456;42.680;23.260;2022-12-29T05:10:44;31.67;;;24.07;;
12784;SDS011;6456;42.680;23.260;2022-12-29T05:13:11;34.47;;;25.63;;
12784;SDS011;6456;42.680;23.260;2022-12-29T05:15:38;32.80;;;24.23;;
12784;SDS011;6456;42.680;23.260;2022-12-29T05:18:05;33.23;;;25.17;;
12784;SDS011;6456;42.680;23.260;2022-12-29T05:20:33;35.97;;;24.37;;
12784;SDS011;6456;42.680;23.260;2022-12-29T05:23:00;32.20;;;23.77;;
12784;SDS011;6456;42.680;23.260;2022-12-29T05:25:27;32.40;;;22.60;;
12784;SDS011;6456;42.680;23.260;2022-12-29T05:27:53;28.60;;;21.47;;
12784;SDS011;6456;42.680;23.260;2022-12-29T05:30:20;26.50;;;20.63;;
12784;SDS011;6456;42.680;23.260;2022-12-29T05:32:47;26.87;;;20.93;;
12784;SDS011;6456;42.680;23.260;2022-12-29T05:35:14;29.00;;;20.63;;
12784;SDS011;6456;42.680;23.260;2022-12-29T05:37:43;28.00;;;21.13;;
12784;SDS011;6456;42.680;23.260;2022-12-29T05:40:10;29.73;;;21.20;;
12784;SDS011;6456;42.680;23.260;2022-12-29T05:42:37;26.83;;;21.27;;
12784;SDS011;6456;42.680;23.260;2022-12-29T05:45:05;28.57;;;21.83;;
12784;SDS011;6456;42.680;23.260;2022-12-29T05:47:33;28.73;;;21.70;;
12784;SDS011;6456;42.680;23.260;2022-12-29T05:50:00;25.77;;;20.53;;
12784;SDS011;6456;42.680;23.260;2022-12-29T05:52:27;25.83;;;21.47;;
12784;SDS011;6456;42.680;23.260;2022-12-29T05:54:56;30.00;;;21.63;;
12784;SDS011;6456;42.680;23.260;2022-12-29T05:57:22;28.27;;;21.87;;
12784;SDS011;6456;42.680;23.260;2022-12-29T05:59:49;31.63;;;22.37;;
12784;SDS011;6456;42.680;23.260;2022-12-29T06:02:16;30.43;;;22.47;;
12784;SDS011;6456;42.680;23.260;2022-12-29T06:04:43;25.93;;;20.73;;
12784;SDS011;6456;42.680;23.260;2022-12-29T06:07:10;27.77;;;21.17;;
12784;SDS011;6456;42.680;23.260;2022-12-29T06:09:36;25.47;;;19.30;;
12784;SDS011;6456;42.680;23.260;2022-12-29T06:12:05;27.73;;;20.73;;
12784;SDS011;6456;42.680;23.260;2022-12-29T06:14:32;25.67;;;20.43;;
12784;SDS011;6456;42.680;23.260;2022-12-29T06:16:59;24.07;;;19.23;;
12784;SDS011;6456;42.680;23.260;2022-12-29T06:19:26;27.53;;;19.63;;
12784;SDS011;6456;42.680;23.260;2022-12-29T06:21:53;26.30;;;20.37;;
12784;SDS011;6456;42.680;23.260;2022-12-29T06:24:20;26.40;;;20.30;;
12784;SDS011;6456;42.680;23.260;2022-12-29T06:26:47;25.37;;;20.27;;
12784;SDS011;6456;42.680;23.260;2022-12-29T06:29:15;28.00;;;20.13;;
12784;SDS011;6456;42.680;23.260;2022-12-29T06:31:43;26.47;;;20.00;;
12784;SDS011;6456;42.680;23.260;2022-12-29T06:34:10;26.47;;;20.10;;
12784;SDS011;6456;42.680;23.260;2022-12-29T06:36:37;25.03;;;19.00;;
12784;SDS011;6456;42.680;23.260;2022-12-29T06:39:04;28.10;;;21.67;;
12784;SDS011;6456;42.680;23.260;2022-12-29T06:41:31;26.93;;;21.60;;
12784;SDS011;6456;42.680;23.260;2022-12-29T06:43:58;25.07;;;19.23;;
12784;SDS011;6456;42.680;23.260;2022-12-29T06:46:26;32.10;;;20.50;;
12784;SDS011;6456;42.680;23.260;2022-12-29T06:48:53;27.70;;;20.80;;
12784;SDS011;6456;42.680;23.260;2022-12-29T06:51:20;25.53;;;20.73;;
12784;SDS011;6456;42.680;23.260;2022-12-29T06:53:47;26.70;;;20.93;;
12784;SDS011;6456;42.680;23.260;2022-12-29T06:56:14;26.13;;;20.73;;
12784;SDS011;6456;42.680;23.260;2022-12-29T06:58:41;24.60;;;20.27;;
12784;SDS011;6456;42.680;23.260;2022-12-29T07:01:08;29.50;;;21.07;;
12784;SDS011;6456;42.680;23.260;2022-12-29T07:03:36;26.03;;;20.90;;
12784;SDS011;6456;42.680;23.260;2022-12-29T07:06:03;25.50;;;20.67;;
12784;SDS011;6456;42.680;23.260;2022-12-29T07:08:30;23.83;;;19.13;;
12784;SDS011;6456;42.680;23.260;2022-12-29T07:10:57;27.27;;;21.23;;
12784;SDS011;6456;42.680;23.260;2022-12-29T07:13:24;25.33;;;19.40;;
12784;SDS011;6456;42.680;23.260;2022-12-29T07:15:51;25.67;;;19.80;;
12784;SDS011;6456;42.680;23.260;2022-12-29T07:18:18;25.57;;;19.87;;
12784;SDS011;6456;42.680;23.260;2022-12-29T07:20:46;27.13;;;20.97;;
12784;SDS011;6456;42.680;23.260;2022-12-29T07:23:13;23.70;;;18.07;;
12784;SDS011;6456;42.680;23.260;2022-12-29T07:25:40;26.73;;;19.30;;
12784;SDS011;6456;42.680;23.260;2022-12-29T07:28:07;24.53;;;19.40;;
12784;SDS011;6456;42.680;23.260;2022-12-29T07:30:36;24.60;;;19.20;;
12784;SDS011;6456;42.680;23.260;2022-12-29T07:33:03;25.33;;;19.63;;
12784;SDS011;6456;42.680;23.260;2022-12-29T07:35:30;29.43;;;20.60;;
12784;SDS011;6456;42.680;23.260;2022-12-29T07:37:58;27.60;;;20.47;;
12784;SDS011;6456;42.680;23.260;2022-12-29T07:40:25;27.80;;;19.83;;
12784;SDS011;6456;42.680;23.260;2022-12-29T07:45:38;23.80;;;18.23;;
12784;SDS011;6456;42.680;23.260;2022-12-29T07:48:05;23.23;;;19.47;;
12784;SDS011;6456;42.680;23.260;2022-12-29T07:50:33;25.90;;;19.33;;
12784;SDS011;6456;42.680;23.260;2022-12-29T07:53:02;26.53;;;19.20;;
12784;SDS011;6456;42.680;23.260;2022-12-29T07:55:29;25.20;;;19.83;;
12784;SDS011;6456;42.680;23.260;2022-12-29T07:57:56;26.40;;;21.20;;
12784;SDS011;6456;42.680;23.260;2022-12-29T08:00:23;27.47;;;19.43;;
12784;SDS011;6456;42.680;23.260;2022-12-29T08:02:50;25.63;;;20.00;;
12784;SDS011;6456;42.680;23.260;2022-12-29T08:05:17;26.10;;;20.20;;
12784;SDS011;6456;42.680;23.260;2022-12-29T08:07:44;23.40;;;19.17;;
12784;SDS011;6456;42.680;23.260;2022-12-29T08:10:13;24.80;;;19.30;;
12784;SDS011;6456;42.680;23.260;2022-12-29T08:12:40;28.07;;;19.23;;
12784;SDS011;6456;42.680;23.260;2022-12-29T08:15:09;23.50;;;18.37;;
12784;SDS011;6456;42.680;23.260;2022-12-29T08:17:37;23.97;;;18.93;;
12784;SDS011;6456;42.680;23.260;2022-12-29T08:20:04;25.60;;;19.23;;
12784;SDS011;6456;42.680;23.260;2022-12-29T08:22:32;26.33;;;19.60;;
12784;SDS011;6456;42.680;23.260;2022-12-29T08:24:59;23.63;;;18.70;;
12784;SDS011;6456;42.680;23.260;2022-12-29T08:27:27;23.73;;;18.60;;
12784;SDS011;6456;42.680;23.260;2022-12-29T08:29:54;26.07;;;19.13;;
12784;SDS011;6456;42.680;23.260;2022-12-29T08:32:21;25.20;;;19.57;;
12784;SDS011;6456;42.680;23.260;2022-12-29T08:34:48;24.07;;;18.43;;
12784;SDS011;6456;42.680;23.260;2022-12-29T08:37:14;23.30;;;18.27;;
12784;SDS011;6456;42.680;23.260;2022-12-29T08:39:41;21.43;;;17.90;;
12784;SDS011;6456;42.680;23.260;2022-12-29T08:42:08;22.10;;;17.70;;
12784;SDS011;6456;42.680;23.260;2022-12-29T08:44:36;23.47;;;18.10;;
12784;SDS011;6456;42.680;23.260;2022-12-29T08:47:03;23.67;;;17.50;;
12784;SDS011;6456;42.680;23.260;2022-12-29T08:49:30;19.90;;;16.90;;
12784;SDS011;6456;42.680;23.260;2022-12-29T08:51:58;21.80;;;17.37;;
12784;SDS011;6456;42.680;23.260;2022-12-29T08:54:26;22.60;;;18.03;;
12784;SDS011;6456;42.680;23.260;2022-12-29T08:57:05;23.53;;;17.27;;
12784;SDS011;6456;42.680;23.260;2022-12-29T08:59:32;22.67;;;17.73;;
12784;SDS011;6456;42.680;23.260;2022-12-29T09:02:00;26.50;;;18.23;;
12784;SDS011;6456;42.680;23.260;2022-12-29T09:04:27;26.73;;;18.60;;
12784;SDS011;6456;42.680;23.260;2022-12-29T09:06:54;21.80;;;16.57;;
12784;SDS011;6456;42.680;23.260;2022-12-29T09:09:21;22.67;;;17.63;;
12784;SDS011;6456;42.680;23.260;2022-12-29T09:11:48;22.63;;;16.50;;
12784;SDS011;6456;42.680;23.260;2022-12-29T09:14:15;21.80;;;17.47;;
12784;SDS011;6456;42.680;23.260;2022-12-29T09:16:42;21.93;;;16.70;;
12784;SDS011;6456;42.680;23.260;2022-12-29T09:19:28;22.17;;;17.20;;
12784;SDS011;6456;42.680;23.260;2022-12-29T09:21:54;23.17;;;17.13;;
12784;SDS011;6456;42.680;23.260;2022-12-29T09:24:21;20.70;;;16.87;;
12784;SDS011;6456;42.680;23.260;2022-12-29T09:26:48;20.27;;;16.30;;
12784;SDS011;6456;42.680;23.260;2022-12-29T09:29:15;27.33;;;16.83;;
12784;SDS011;6456;42.680;23.260;2022-12-29T09:31:45;20.17;;;15.63;;
12784;SDS011;6456;42.680;23.260;2022-12-29T09:34:12;22.80;;;15.67;;
12784;SDS011;6456;42.680;23.260;2022-12-29T09:36:40;20.43;;;16.40;;
12784;SDS011;6456;42.680;23.260;2022-12-29T09:39:07;19.97;;;16.10;;
12784;SDS011;6456;42.680;23.260;2022-12-29T09:41:35;22.60;;;15.97;;
12784;SDS011;6456;42.680;23.260;2022-12-29T09:44:11;22.17;;;16.47;;
12784;SDS011;6456;42.680;23.260;2022-12-29T09:46:44;20.97;;;15.63;;
12784;SDS011;6456;42.680;23.260;2022-12-29T09:49:17;19.00;;;15.67;;
12784;SDS011;6456;42.680;23.260;2022-12-29T09:51:52;18.03;;;14.97;;
12784;SDS011;6456;42.680;23.260;2022-12-29T09:54:24;18.67;;;15.67;;
12784;SDS011;6456;42.680;23.260;2022-12-29T09:57:03;21.33;;;15.03;;
12784;SDS011;6456;42.680;23.260;2022-12-29T09:59:35;19.40;;;15.70;;
12784;SDS011;6456;42.680;23.260;2022-12-29T10:02:17;23.33;;;15.73;;
12784;SDS011;6456;42.680;23.260;2022-12-29T10:04:53;22.70;;;16.40;;
12784;SDS011;6456;42.680;23.260;2022-12-29T10:07:25;20.67;;;16.03;;
12784;SDS011;6456;42.680;23.260;2022-12-29T10:10:01;23.97;;;17.50;;
12784;SDS011;6456;42.680;23.260;2022-12-29T10:12:38;23.70;;;16.93;;
12784;SDS011;6456;42.680;23.260;2022-12-29T10:15:20;23.33;;;17.37;;
12784;SDS011;6456;42.680;23.260;2022-12-29T10:18:01;21.90;;;17.37;;
12784;SDS011;6456;42.680;23.260;2022-12-29T10:20:37;25.57;;;18.30;;
12784;SDS011;6456;42.680;23.260;2022-12-29T10:23:16;22.03;;;18.07;;
12784;SDS011;6456;42.680;23.260;2022-12-29T10:25:52;22.00;;;17.53;;
12784;SDS011;6456;42.680;23.260;2022-12-29T10:28:22;30.37;;;21.80;;
12784;SDS011;6456;42.680;23.260;2022-12-29T10:30:51;28.97;;;23.73;;
12784;SDS011;6456;42.680;23.260;2022-12-29T10:33:21;33.53;;;26.23;;
12784;SDS011;6456;42.680;23.260;2022-12-29T10:35:50;34.77;;;25.77;;
12784;SDS011;6456;42.680;23.260;2022-12-29T10:38:20;34.37;;;26.37;;
12784;SDS011;6456;42.680;23.260;2022-12-29T10:40:53;34.47;;;24.13;;
12784;SDS011;6456;42.680;23.260;2022-12-29T10:43:25;36.73;;;25.50;;
12784;SDS011;6456;42.680;23.260;2022-12-29T10:45:55;32.77;;;23.40;;
12784;SDS011;6456;42.680;23.260;2022-12-29T10:48:25;29.33;;;21.83;;
12784;SDS011;6456;42.680;23.260;2022-12-29T10:50:55;33.63;;;24.00;;
12784;SDS011;6456;42.680;23.260;2022-12-29T10:53:27;40.90;;;30.03;;
12784;SDS011;6456;42.680;23.260;2022-12-29T10:56:00;37.07;;;27.80;;
12784;SDS011;6456;42.680;23.260;2022-12-29T10:58:31;39.10;;;28.23;;
12784;SDS011;6456;42.680;23.260;2022-12-29T11:00:58;43.33;;;30.77;;
12784;SDS011;6456;42.680;23.260;2022-12-29T11:03:38;33.60;;;26.77;;
12784;SDS011;6456;42.680;23.260;2022-12-29T11:06:15;35.63;;;26.03;;
12784;SDS011;6456;42.680;23.260;2022-12-29T11:08:53;31.17;;;25.43;;
12784;SDS011;6456;42.680;23.260;2022-12-29T11:11:25;36.10;;;25.10;;
12784;SDS011;6456;42.680;23.260;2022-12-29T11:13:57;34.40;;;26.27;;
12784;SDS011;6456;42.680;23.260;2022-12-29T11:16:29;34.30;;;25.33;;
12784;SDS011;6456;42.680;23.260;2022-12-29T11:18:57;36.53;;;26.20;;
12784;SDS011;6456;42.680;23.260;2022-12-29T11:21:26;29.00;;;24.17;;
12784;SDS011;6456;42.680;23.260;2022-12-29T11:23:59;35.03;;;25.53;;
12784;SDS011;6456;42.680;23.260;2022-12-29T11:26:30;30.63;;;24.33;;
12784;SDS011;6456;42.680;23.260;2022-12-29T11:29:20;32.20;;;24.53;;
12784;SDS011;6456;42.680;23.260;2022-12-29T11:31:49;29.60;;;22.23;;
12784;SDS011;6456;42.680;23.260;2022-12-29T11:34:27;29.57;;;23.50;;
12784;SDS011;6456;42.680;23.260;2022-12-29T11:36:59;30.97;;;23.57;;
12784;SDS011;6456;42.680;23.260;2022-12-29T11:39:32;28.63;;;22.63;;
12784;SDS011;6456;42.680;23.260;2022-12-29T11:42:05;33.33;;;23.40;;
12784;SDS011;6456;42.680;23.260;2022-12-29T11:44:41;30.63;;;22.93;;
12784;SDS011;6456;42.680;23.260;2022-12-29T11:47:12;31.80;;;23.70;;
12784;SDS011;6456;42.680;23.260;2022-12-29T11:49:55;25.30;;;20.07;;
12784;SDS011;6456;42.680;23.260;2022-12-29T11:52:26;25.30;;;20.27;;
12784;SDS011;6456;42.680;23.260;2022-12-29T11:54:59;28.00;;;20.00;;
12784;SDS011;6456;42.680;23.260;2022-12-29T11:57:29;25.93;;;18.77;;
12784;SDS011;6456;42.680;23.260;2022-12-29T12:00:02;30.60;;;19.73;;
12784;SDS011;6456;42.680;23.260;2022-12-29T12:02:44;24.53;;;18.47;;
12784;SDS011;6456;42.680;23.260;2022-12-29T12:05:24;29.97;;;19.67;;
12784;SDS011;6456;42.680;23.260;2022-12-29T12:07:59;28.23;;;19.97;;
12784;SDS011;6456;42.680;23.260;2022-12-29T12:10:39;26.73;;;20.20;;
12784;SDS011;6456;42.680;23.260;2022-12-29T12:13:21;29.23;;;21.73;;
12784;SDS011;6456;42.680;23.260;2022-12-29T12:16:02;31.53;;;20.30;;
12784;SDS011;6456;42.680;23.260;2022-12-29T12:18:37;28.33;;;20.83;;
12784;SDS011;6456;42.680;23.260;2022-12-29T12:21:10;27.90;;;20.07;;
12784;SDS011;6456;42.680;23.260;2022-12-29T12:23:50;26.17;;;19.63;;
12784;SDS011;6456;42.680;23.260;2022-12-29T12:26:30;24.30;;;19.97;;
12784;SDS011;6456;42.680;23.260;2022-12-29T12:29:04;30.27;;;19.67;;
12784;SDS011;6456;42.680;23.260;2022-12-29T12:31:41;29.60;;;20.57;;
12784;SDS011;6456;42.680;23.260;2022-12-29T12:34:15;26.77;;;21.07;;
12784;SDS011;6456;42.680;23.260;2022-12-29T12:36:53;34.00;;;21.17;;
12784;SDS011;6456;42.680;23.260;2022-12-29T12:39:37;29.77;;;21.83;;
12784;SDS011;6456;42.680;23.260;2022-12-29T12:42:19;29.57;;;21.57;;
12784;SDS011;6456;42.680;23.260;2022-12-29T12:44:57;28.60;;;22.30;;
12784;SDS011;6456;42.680;23.260;2022-12-29T12:47:41;29.30;;;21.37;;
12784;SDS011;6456;42.680;23.260;2022-12-29T12:50:20;35.37;;;21.93;;
12784;SDS011;6456;42.680;23.260;2022-12-29T12:53:02;31.40;;;23.60;;
12784;SDS011;6456;42.680;23.260;2022-12-29T12:55:55;34.57;;;25.93;;
12784;SDS011;6456;42.680;23.260;2022-12-29T12:58:33;41.87;;;30.07;;
12784;SDS011;6456;42.680;23.260;2022-12-29T13:01:11;40.40;;;30.43;;
12784;SDS011;6456;42.680;23.260;2022-12-29T13:03:50;31.57;;;23.33;;
12784;SDS011;6456;42.680;23.260;2022-12-29T13:06:32;34.13;;;23.27;;
12784;SDS011;6456;42.680;23.260;2022-12-29T13:09:14;36.53;;;24.27;;
12784;SDS011;6456;42.680;23.260;2022-12-29T13:11:55;38.17;;;26.47;;
12784;SDS011;6456;42.680;23.260;2022-12-29T13:14:37;43.97;;;30.77;;
12784;SDS011;6456;42.680;23.260;2022-12-29T13:17:13;48.67;;;31.00;;
12784;SDS011;6456;42.680;23.260;2022-12-29T13:19:48;45.60;;;30.87;;
12784;SDS011;6456;42.680;23.260;2022-12-29T13:22:22;49.80;;;29.33;;
12784;SDS011;6456;42.680;23.260;2022-12-29T13:25:00;40.53;;;25.47;;
12784;SDS011;6456;42.680;23.260;2022-12-29T13:27:43;31.10;;;21.37;;
12784;SDS011;6456;42.680;23.260;2022-12-29T13:30:17;31.40;;;20.63;;
12784;SDS011;6456;42.680;23.260;2022-12-29T13:32:56;29.60;;;20.97;;
12784;SDS011;6456;42.680;23.260;2022-12-29T13:35:40;23.93;;;20.27;;
12784;SDS011;6456;42.680;23.260;2022-12-29T13:38:19;31.93;;;21.63;;
12784;SDS011;6456;42.680;23.260;2022-12-29T13:40:50;29.70;;;21.63;;
12784;SDS011;6456;42.680;23.260;2022-12-29T13:43:21;29.97;;;21.47;;
12784;SDS011;6456;42.680;23.260;2022-12-29T13:45:54;32.20;;;21.57;;
12784;SDS011;6456;42.680;23.260;2022-12-29T13:48:26;39.27;;;25.47;;
12784;SDS011;6456;42.680;23.260;2022-12-29T13:51:03;34.57;;;26.30;;
12784;SDS011;6456;42.680;23.260;2022-12-29T13:53:35;38.17;;;28.27;;
12784;SDS011;6456;42.680;23.260;2022-12-29T13:56:10;41.17;;;29.93;;
12784;SDS011;6456;42.680;23.260;2022-12-29T13:58:46;43.73;;;30.53;;
12784;SDS011;6456;42.680;23.260;2022-12-29T14:01:18;34.70;;;23.57;;
12784;SDS011;6456;42.680;23.260;2022-12-29T14:03:50;38.53;;;28.63;;
12784;SDS011;6456;42.680;23.260;2022-12-29T14:06:21;45.03;;;31.93;;
12784;SDS011;6456;42.680;23.260;2022-12-29T14:08:50;49.37;;;32.67;;
12784;SDS011;6456;42.680;23.260;2022-12-29T14:11:21;45.80;;;33.93;;
12784;SDS011;6456;42.680;23.260;2022-12-29T14:13:51;52.03;;;36.40;;
12784;SDS011;6456;42.680;23.260;2022-12-29T14:19:05;52.10;;;35.70;;
12784;SDS011;6456;42.680;23.260;2022-12-29T14:21:39;43.43;;;31.43;;
12784;SDS011;6456;42.680;23.260;2022-12-29T14:24:26;36.83;;;25.90;;
12784;SDS011;6456;42.680;23.260;2022-12-29T14:33:16;39.60;;;27.20;;
12784;SDS011;6456;42.680;23.260;2022-12-29T14:35:45;30.13;;;21.63;;
12784;SDS011;6456;42.680;23.260;2022-12-29T14:38:24;30.53;;;22.03;;
12784;SDS011;6456;42.680;23.260;2022-12-29T14:41:15;36.90;;;25.33;;
12784;SDS011;6456;42.680;23.260;2022-12-29T14:43:53;32.97;;;24.17;;
12784;SDS011;6456;42.680;23.260;2022-12-29T14:46:23;35.63;;;23.87;;
12784;SDS011;6456;42.680;23.260;2022-12-29T14:48:56;36.00;;;24.53;;
12784;SDS011;6456;42.680;23.260;2022-12-29T14:51:30;36.47;;;23.73;;
12784;SDS011;6456;42.680;23.260;2022-12-29T14:54:00;35.60;;;25.00;;
12784;SDS011;6456;42.680;23.260;2022-12-29T14:56:56;29.77;;;21.53;;
12784;SDS011;6456;42.680;23.260;2022-12-29T14:59:24;36.50;;;23.27;;
12784;SDS011;6456;42.680;23.260;2022-12-29T15:01:52;33.80;;;22.57;;
12784;SDS011;6456;42.680;23.260;2022-12-29T15:04:25;32.50;;;21.20;;